Time;durP1;ratioP1;P1;durP2;ratioP2;P2;SDS_P1;SDS_P2;PMS_P1;PMS_P2;Temp;Humidity;BMP_temperature;BMP_pressure;BME280_temperature;BME280_humidity;BME280_pressure;Samples;Min_cycle;Max_cycle;Signal;HPM_P1;HPM_P2
2023/09/13 00:03:57;;;;;;;16.95;12.05;;;;;18.80;96078.00;;;;8260547;28;20698;-66
2023/09/13 00:08:02;;;;;;;22.48;12.90;;;;;18.80;96076.00;;;;8269243;28;20636;-66
2023/09/13 00:12:09;;;;;;;23.92;12.98;;;;;18.70;96075.00;;;;8260755;28;20198;-66
2023/09/13 00:16:13;;;;;;;15.93;11.82;;;;;18.60;96081.00;;;;8267655;28;20298;-66
2023/09/13 00:20:17;;;;;;;18.90;13.35;;;;;18.50;96063.00;;;;8254513;28;20294;-66
2023/09/13 00:24:20;;;;;;;18.52;12.80;;;;;18.50;96070.00;;;;8257170;28;20227;-66
2023/09/13 00:28:27;;;;;;;19.98;12.32;;;;;18.40;96071.00;;;;8264347;28;20760;-66
2023/09/13 00:32:32;;;;;;;19.85;14.07;;;;;18.40;96069.00;;;;8256600;28;20206;-65
2023/09/13 00:36:37;;;;;;;17.83;12.50;;;;;18.40;96077.00;;;;8266015;28;20209;-65
2023/09/13 00:40:40;;;;;;;18.73;12.68;;;;;18.30;96079.00;;;;8251789;28;20253;-66
2023/09/13 00:44:48;;;;;;;18.73;12.40;;;;;18.20;96080.00;;;;8262241;28;20218;-65
2023/09/13 00:48:52;;;;;;;18.25;11.50;;;;;18.10;96071.00;;;;8248013;28;20204;-65
2023/09/13 00:52:58;;;;;;;18.95;12.88;;;;;18.10;96068.00;;;;8258359;28;20218;-66
2023/09/13 00:57:02;;;;;;;19.17;11.45;;;;;18.00;96072.00;;;;8252612;28;20195;-66
2023/09/13 01:01:09;;;;;;;17.73;10.57;;;;;18.00;96078.00;;;;8257358;28;20238;-65
2023/09/13 01:05:17;;;;;;;14.02;10.80;;;;;17.90;96075.00;;;;8256311;28;20676;-65
2023/09/13 01:09:21;;;;;;;14.73;10.38;;;;;17.80;96082.00;;;;8262005;28;20206;-65
2023/09/13 01:13:24;;;;;;;16.50;10.85;;;;;17.80;96084.00;;;;8252437;28;20755;-66
2023/09/13 01:17:38;;;;;;;17.98;11.43;;;;;17.80;96091.00;;;;8255880;28;20195;-66
2023/09/13 01:22:02;;;;;;;15.30;11.43;;;;;17.70;96089.00;;;;8256004;28;20210;-65
2023/09/13 01:26:32;;;;;;;14.98;9.98;;;;;17.80;96088.00;;;;8250744;28;20234;-66
2023/09/13 01:30:40;;;;;;;15.73;8.98;;;;;18.10;96087.00;;;;8256807;28;20197;-65
2023/09/13 01:34:43;;;;;;;13.10;9.18;;;;;18.20;96095.00;;;;8258259;28;20218;-66
2023/09/13 01:38:47;;;;;;;11.93;8.32;;;;;18.20;96090.00;;;;8245650;28;20197;-66
2023/09/13 01:42:58;;;;;;;15.63;9.40;;;;;18.20;96079.00;;;;8255196;28;20214;-66
2023/09/13 01:47:06;;;;;;;18.35;9.38;;;;;18.20;96088.00;;;;8262843;28;20234;-65
2023/09/13 01:51:12;;;;;;;14.80;8.48;;;;;18.20;96083.00;;;;8259822;28;20286;-65
2023/09/13 01:55:15;;;;;;;13.05;9.10;;;;;18.10;96089.00;;;;8257865;28;20202;-66
2023/09/13 01:59:19;;;;;;;14.93;9.35;;;;;18.00;96098.00;;;;8255567;28;20195;-66
2023/09/13 02:03:26;;;;;;;15.13;9.40;;;;;18.00;96093.00;;;;8256994;28;20664;-66
2023/09/13 02:07:29;;;;;;;18.27;8.75;;;;;17.90;96109.00;;;;8256373;28;20337;-66
2023/09/13 02:11:33;;;;;;;13.90;9.43;;;;;17.80;96110.00;;;;8256462;28;20225;-66
2023/09/13 02:15:40;;;;;;;23.80;10.35;;;;;17.70;96102.00;;;;8261859;28;20273;-66
2023/09/13 02:19:48;;;;;;;15.40;9.57;;;;;17.70;96108.00;;;;8257733;28;20203;-66
2023/09/13 02:23:53;;;;;;;15.13;8.57;;;;;17.60;96102.00;;;;8252981;28;20629;-65
2023/09/13 02:27:58;;;;;;;14.55;9.38;;;;;17.50;96099.00;;;;8256237;28;20257;-66
2023/09/13 02:32:02;;;;;;;16.17;9.50;;;;;17.50;96101.00;;;;8253884;28;20764;-65
2023/09/13 02:36:10;;;;;;;14.80;8.77;;;;;17.60;96112.00;;;;8274352;28;20935;-65
2023/09/13 02:40:14;;;;;;;12.50;8.68;;;;;17.80;96116.00;;;;8256693;28;20234;-65
2023/09/13 02:44:19;;;;;;;16.17;8.65;;;;;17.90;96116.00;;;;8278796;28;20564;-65
2023/09/13 02:48:26;;;;;;;13.88;8.98;;;;;17.90;96124.00;;;;8255094;28;20285;-65
2023/09/13 02:52:32;;;;;;;13.15;8.60;;;;;17.90;96127.00;;;;8254861;28;20294;-66
2023/09/13 02:56:40;;;;;;;12.32;8.30;;;;;17.80;96128.00;;;;8269937;28;20821;-66
2023/09/13 03:00:44;;;;;;;12.85;8.88;;;;;17.70;96132.00;;;;8304096;23;20957;-65
2023/09/13 03:04:51;;;;;;;13.32;7.63;;;;;17.60;96133.00;;;;8344772;23;20724;-65
2023/09/13 03:09:00;;;;;;;12.43;8.10;;;;;17.50;96130.00;;;;8319515;28;21160;-66
2023/09/13 03:13:03;;;;;;;14.82;8.88;;;;;17.50;96125.00;;;;8319045;28;20197;-65
2023/09/13 03:17:07;;;;;;;12.60;9.55;;;;;17.40;96117.00;;;;8318918;28;20210;-66
2023/09/13 03:21:11;;;;;;;13.70;9.23;;;;;17.30;96118.00;;;;8317846;28;20201;-66
2023/09/13 03:25:19;;;;;;;14.85;8.90;;;;;17.30;96108.00;;;;8317188;28;20864;-66
2023/09/13 03:29:24;;;;;;;12.35;8.40;;;;;17.30;96111.00;;;;8317482;28;20205;-66
2023/09/13 03:33:33;;;;;;;11.23;9.10;;;;;17.30;96115.00;;;;8316963;28;20229;-65
2023/09/13 03:37:40;;;;;;;12.60;8.63;;;;;17.30;96115.00;;;;8317765;28;20608;-66
2023/09/13 03:41:47;;;;;;;11.73;8.93;;;;;17.40;96117.00;;;;8311271;28;20688;-65
2023/09/13 03:45:53;;;;;;;14.95;8.90;;;;;17.50;96111.00;;;;8314885;28;20629;-67
2023/09/13 03:49:57;;;;;;;11.55;8.00;;;;;17.50;96123.00;;;;8315676;28;20901;-67
2023/09/13 03:54:02;;;;;;;11.98;8.60;;;;;17.50;96124.00;;;;8316796;28;20197;-67
2023/09/13 03:58:09;;;;;;;13.48;9.63;;;;;17.50;96129.00;;;;8317172;28;20212;-66
2023/09/13 04:02:12;;;;;;;14.75;9.88;;;;;17.50;96132.00;;;;8315307;28;20233;-65
2023/09/13 04:06:16;;;;;;;15.40;9.20;;;;;17.60;96132.00;;;;8315859;28;20224;-65
2023/09/13 04:10:21;;;;;;;18.23;9.18;;;;;17.60;96127.00;;;;8297836;28;20206;-66
2023/09/13 04:14:28;;;;;;;16.42;8.63;;;;;17.60;96126.00;;;;8298063;28;20208;-66
2023/09/13 04:18:33;;;;;;;15.07;9.95;;;;;17.60;96125.00;;;;8314972;28;20236;-66
2023/09/13 04:22:36;;;;;;;15.10;8.85;;;;;17.60;96133.00;;;;8296455;28;20273;-66
2023/09/13 04:26:40;;;;;;;12.15;8.48;;;;;17.70;96119.00;;;;8314224;28;20229;-65
2023/09/13 04:30:44;;;;;;;13.52;9.50;;;;;17.80;96124.00;;;;8312913;28;20284;-66
2023/09/13 04:34:47;;;;;;;13.65;8.95;;;;;17.90;96133.00;;;;8314362;28;20205;-66
2023/09/13 04:38:51;;;;;;;11.82;8.40;;;;;17.90;96138.00;;;;8316958;28;20292;-66
2023/09/13 04:43:23;;;;;;;15.52;8.88;;;;;18.00;96139.00;;;;8314237;28;20233;-66
2023/09/13 04:47:28;;;;;;;16.35;9.10;;;;;18.10;96145.00;;;;8312448;28;20233;-65
2023/09/13 04:51:32;;;;;;;13.88;8.35;;;;;18.10;96141.00;;;;8307510;28;20753;-65
2023/09/13 04:55:37;;;;;;;14.30;8.75;;;;;18.20;96149.00;;;;8313751;28;20292;-66
2023/09/13 04:59:45;;;;;;;15.38;8.95;;;;;18.30;96144.00;;;;8293027;28;20947;-67
2023/09/13 05:03:52;;;;;;;16.95;8.77;;;;;18.30;96147.00;;;;8313719;28;20240;-66
2023/09/13 05:07:56;;;;;;;15.02;9.48;;;;;18.40;96160.00;;;;8312456;28;20221;-66
2023/09/13 05:12:11;;;;;;;15.95;8.57;;;;;18.60;96155.00;;;;8315529;28;20263;-64
2023/09/13 05:16:19;;;;;;;35.67;10.38;;;;;18.70;96163.00;;;;8308420;28;20204;-64
2023/09/13 05:20:27;;;;;;;21.00;10.23;;;;;18.80;96179.00;;;;8315188;28;20193;-64
2023/09/13 05:24:31;;;;;;;17.30;9.32;;;;;18.80;96189.00;;;;8313654;28;20197;-65
2023/09/13 05:28:34;;;;;;;13.27;8.57;;;;;18.80;96209.00;;;;8312045;28;20316;-65
2023/09/13 05:32:37;;;;;;;14.98;10.20;;;;;18.80;96209.00;;;;8314707;28;20280;-65
2023/09/13 05:36:46;;;;;;;15.65;9.48;;;;;18.80;96216.00;;;;8308983;28;20190;-64
2023/09/13 05:40:49;;;;;;;12.88;9.73;;;;;18.90;96230.00;;;;8311675;28;20194;-64
2023/09/13 05:44:52;;;;;;;15.85;8.63;;;;;19.00;96228.00;;;;8312722;28;20229;-65
2023/09/13 05:48:58;;;;;;;17.58;9.40;;;;;19.00;96232.00;;;;8313293;28;20255;-65
2023/09/13 05:53:04;;;;;;;12.85;8.57;;;;;19.10;96232.00;;;;8311958;28;21358;-64
2023/09/13 05:57:08;;;;;;;18.02;9.32;;;;;19.20;96242.00;;;;8295515;28;20291;-64
2023/09/13 06:01:11;;;;;;;11.07;8.32;;;;;19.30;96258.00;;;;8312040;28;20816;-65
2023/09/13 06:05:16;;;;;;;13.18;9.10;;;;;19.50;96271.00;;;;8311438;28;20314;-65
2023/09/13 06:09:22;;;;;;;12.00;8.10;;;;;19.70;96260.00;;;;8310688;28;20335;-65
2023/09/13 06:13:30;;;;;;;10.10;8.00;;;;;20.00;96272.00;;;;8313686;28;20217;-65
2023/09/13 06:17:36;;;;;;;15.10;8.52;;;;;20.30;96273.00;;;;8312889;28;20190;-65
2023/09/13 06:21:40;;;;;;;13.32;8.95;;;;;20.40;96268.00;;;;8318228;28;20201;-65
2023/09/13 06:25:52;;;;;;;13.13;8.68;;;;;20.40;96263.00;;;;8319339;28;20731;-65
2023/09/13 06:29:55;;;;;;;15.48;9.43;;;;;20.30;96273.00;;;;8314476;28;20221;-65
2023/09/13 06:33:59;;;;;;;15.63;8.70;;;;;20.40;96279.00;;;;8318980;28;20228;-65
2023/09/13 06:38:21;;;;;;;14.55;8.50;;;;;20.50;96274.00;;;;8318243;28;20658;-64
2023/09/13 06:42:29;;;;;;;12.15;8.00;;;;;20.60;96271.00;;;;8317789;28;20204;-65
2023/09/13 06:46:32;;;;;;;14.60;8.55;;;;;20.80;96274.00;;;;8313900;28;20550;-65
2023/09/13 06:50:40;;;;;;;16.52;8.48;;;;;21.00;96275.00;;;;8316996;28;20201;-64
2023/09/13 06:55:04;;;;;;;11.82;7.88;;;;;21.40;96283.00;;;;8311158;28;20197;-64
2023/09/13 06:59:10;;;;;;;16.30;8.50;;;;;21.70;96281.00;;;;8314914;28;20724;-66
2023/09/13 07:03:16;;;;;;;11.63;7.93;;;;;22.00;96285.00;;;;8316142;28;20299;-66
2023/09/13 07:07:20;;;;;;;15.57;7.70;;;;;22.20;96283.00;;;;8316793;28;20229;-66
2023/09/13 07:11:25;;;;;;;11.68;7.07;;;;;22.40;96283.00;;;;8316576;28;20279;-65
2023/09/13 07:15:33;;;;;;;9.60;6.93;;;;;22.70;96288.00;;;;8316396;28;20206;-65
2023/09/13 07:19:36;;;;;;;9.48;6.32;;;;;23.00;96289.00;;;;8314836;28;20205;-66
2023/09/13 07:23:42;;;;;;;8.82;6.75;;;;;23.20;96290.00;;;;8312775;28;20283;-65
2023/09/13 07:27:49;;;;;;;11.77;6.30;;;;;23.50;96296.00;;;;8297563;28;20229;-65
2023/09/13 07:31:53;;;;;;;8.43;6.28;;;;;23.70;96291.00;;;;8313075;28;20216;-65
2023/09/13 07:35:57;;;;;;;8.85;6.43;;;;;23.80;96290.00;;;;8315298;28;20202;-65
2023/09/13 07:40:01;;;;;;;7.60;5.82;;;;;23.90;96293.00;;;;8314570;28;20225;-66
2023/09/13 07:44:08;;;;;;;6.43;5.63;;;;;23.80;96297.00;;;;8313584;28;20510;-65
2023/09/13 07:48:13;;;;;;;6.78;5.05;;;;;23.80;96299.00;;;;8313082;28;20225;-66
2023/09/13 07:52:16;;;;;;;6.13;4.70;;;;;23.70;96308.00;;;;8293767;28;20680;-65
2023/09/13 07:56:20;;;;;;;5.93;4.20;;;;;23.70;96305.00;;;;8313486;28;20201;-66
2023/09/13 08:00:23;;;;;;;6.40;4.57;;;;;23.90;96306.00;;;;8313977;28;20288;-66
2023/09/13 08:04:31;;;;;;;4.90;4.40;;;;;24.20;96304.00;;;;8314043;28;20234;-66
2023/09/13 08:08:36;;;;;;;9.52;4.55;;;;;24.60;96308.00;;;;8311065;28;20758;-65
2023/09/13 08:12:40;;;;;;;6.35;4.50;;;;;24.70;96313.00;;;;8314003;28;20989;-65
2023/09/13 08:16:48;;;;;;;6.95;4.57;;;;;24.70;96324.00;;;;8313903;28;20701;-66
2023/09/13 08:20:55;;;;;;;6.70;4.47;;;;;24.60;96328.00;;;;8314081;28;20697;-65
2023/09/13 08:24:59;;;;;;;9.50;4.85;;;;;24.80;96334.00;;;;8313761;28;20281;-66
2023/09/13 08:29:03;;;;;;;7.65;4.97;;;;;25.00;96333.00;;;;8311684;28;20312;-66
2023/09/13 08:33:07;;;;;;;4.63;4.20;;;;;24.90;96337.00;;;;8313387;28;20209;-66
2023/09/13 08:37:13;;;;;;;6.18;4.15;;;;;24.90;96332.00;;;;8313046;28;20205;-66
2023/09/13 08:41:19;;;;;;;5.10;4.20;;;;;25.00;96328.00;;;;8313347;28;20211;-66
2023/09/13 08:45:24;;;;;;;4.30;3.90;;;;;25.30;96328.00;;;;8311829;28;20201;-66
2023/09/13 08:49:27;;;;;;;4.82;4.00;;;;;25.70;96353.00;;;;8312696;28;20229;-66
2023/09/13 08:53:38;;;;;;;4.63;3.53;;;;;25.90;96355.00;;;;8311235;28;20210;-66
2023/09/13 08:57:44;;;;;;;4.25;3.35;;;;;25.90;96360.00;;;;8309437;28;20217;-66
2023/09/13 09:01:48;;;;;;;3.80;3.45;;;;;25.90;96374.00;;;;8310032;28;20309;-65
2023/09/13 09:05:53;;;;;;;4.25;3.38;;;;;26.00;96373.00;;;;8308029;28;20267;-66
2023/09/13 09:09:59;;;;;;;3.92;3.53;;;;;26.20;96369.00;;;;8313150;28;20256;-66
2023/09/13 09:14:05;;;;;;;4.65;3.30;;;;;26.10;96384.00;;;;8311631;28;20201;-66
2023/09/13 09:18:11;;;;;;;3.60;3.17;;;;;26.30;96383.00;;;;8312130;28;20300;-66
2023/09/13 09:22:19;;;;;;;6.28;3.50;;;;;26.20;96387.00;;;;8310825;28;20208;-66
2023/09/13 09:26:24;;;;;;;4.47;3.53;;;;;26.00;96398.00;;;;8311628;28;20292;-66
2023/09/13 09:30:32;;;;;;;4.55;3.63;;;;;26.30;96396.00;;;;8311195;28;20233;-66
2023/09/13 09:34:46;;;;;;;4.13;3.72;;;;;26.80;96404.00;;;;8309513;28;20799;-65
2023/09/13 09:38:54;;;;;;;4.03;3.47;;;;;27.30;96410.00;;;;8311649;28;20198;-66
2023/09/13 09:42:59;;;;;;;4.30;3.90;;;;;27.80;96409.00;;;;8305984;28;20193;-66
2023/09/13 09:47:02;;;;;;;3.90;3.50;;;;;27.70;96416.00;;;;8292006;28;20216;-66
2023/09/13 09:51:05;;;;;;;5.57;3.60;;;;;27.60;96412.00;;;;8311261;28;20618;-66
2023/09/13 09:55:15;;;;;;;4.88;3.65;;;;;27.30;96411.00;;;;8296878;28;20667;-66
2023/09/13 09:59:20;;;;;;;5.13;3.80;;;;;27.20;96405.00;;;;8293735;28;21094;-65
2023/09/13 10:03:26;;;;;;;4.43;4.03;;;;;27.30;96405.00;;;;8316840;28;20229;-65
2023/09/13 10:07:29;;;;;;;4.13;3.80;;;;;27.50;96407.00;;;;8312335;28;20201;-66
2023/09/13 10:11:34;;;;;;;5.57;3.35;;;;;27.50;96405.00;;;;8318377;28;20205;-66
2023/09/13 10:15:43;;;;;;;4.65;3.67;;;;;27.30;96404.00;;;;8317937;28;20514;-66
2023/09/13 10:19:48;;;;;;;5.07;3.47;;;;;27.00;96410.00;;;;8315466;28;20651;-66
2023/09/13 10:23:54;;;;;;;3.42;3.13;;;;;26.90;96409.00;;;;8308162;28;20687;-66
2023/09/13 10:28:03;;;;;;;4.70;3.42;;;;;27.10;96415.00;;;;8312153;28;20332;-65
2023/09/13 10:32:17;;;;;;;3.97;2.75;;;;;27.40;96413.00;;;;8315751;28;20197;-66
2023/09/13 10:36:27;;;;;;;4.45;2.90;;;;;27.60;96413.00;;;;8312737;28;20208;-66
2023/09/13 10:40:39;;;;;;;3.33;3.00;;;;;27.70;96407.00;;;;8317376;28;20202;-65
2023/09/13 10:44:46;;;;;;;2.70;2.50;;;;;27.60;96408.00;;;;8316488;28;20209;-66
2023/09/13 10:48:53;;;;;;;3.20;2.90;;;;;27.60;96405.00;;;;8315070;28;20224;-66
2023/09/13 10:53:00;;;;;;;3.22;2.60;;;;;27.50;96400.00;;;;8311652;28;20697;-66
2023/09/13 10:57:03;;;;;;;2.30;2.13;;;;;27.60;96405.00;;;;8301369;28;20240;-66
2023/09/13 11:01:07;;;;;;;2.92;2.40;;;;;27.70;96396.00;;;;8307386;28;20292;-66
2023/09/13 11:05:15;;;;;;;2.72;2.53;;;;;27.80;96408.00;;;;8306614;28;20319;-65
2023/09/13 11:09:26;;;;;;;4.63;3.00;;;;;27.90;96408.00;;;;8313141;28;20754;-66
2023/09/13 11:13:31;;;;;;;2.45;2.22;;;;;28.10;96400.00;;;;8313061;28;20198;-66
2023/09/13 11:17:37;;;;;;;2.67;2.47;;;;;28.00;96401.00;;;;8314084;28;20209;-66
2023/09/13 11:21:49;;;;;;;3.30;2.50;;;;;28.10;96395.00;;;;8313935;28;20272;-66
2023/09/13 11:25:55;;;;;;;2.90;2.58;;;;;28.10;96393.00;;;;8314790;28;20292;-65
2023/09/13 11:30:06;;;;;;;3.00;2.55;;;;;28.20;96393.00;;;;8315247;28;20295;-66
2023/09/13 11:34:15;;;;;;;2.88;2.67;;;;;28.30;96391.00;;;;8312895;28;20312;-66
2023/09/13 11:38:20;;;;;;;2.50;2.40;;;;;28.10;96397.00;;;;8307408;28;20208;-66
2023/09/13 11:42:28;;;;;;;3.10;2.40;;;;;27.80;96390.00;;;;8313070;28;20205;-66
2023/09/13 11:46:38;;;;;;;2.63;2.42;;;;;28.00;96394.00;;;;8309919;28;20202;-65
2023/09/13 11:50:48;;;;;;;2.92;2.67;;;;;28.20;96397.00;;;;8311933;28;20226;-66
2023/09/13 11:54:59;;;;;;;2.80;2.60;;;;;28.10;96394.00;;;;8289515;28;20288;-66
2023/09/13 11:59:09;;;;;;;3.70;2.83;;;;;28.10;96396.00;;;;8308658;28;20201;-66
2023/09/13 12:03:17;;;;;;;2.90;2.70;;;;;27.90;96389.00;;;;8281649;28;20328;-64
2023/09/13 12:07:46;;;;;;;2.60;2.40;;;;;27.80;96384.00;;;;8312417;28;20272;-64
2023/09/13 12:11:55;;;;;;;3.03;2.50;;;;;27.70;96389.00;;;;8306232;28;20233;-66
2023/09/13 12:16:04;;;;;;;5.00;2.67;;;;;27.40;96389.00;;;;8306384;28;20198;-66
2023/09/13 12:20:10;;;;;;;2.95;2.67;;;;;27.10;96390.00;;;;8305978;28;20197;-66
2023/09/13 12:24:20;;;;;;;4.30;3.50;;;;;27.20;96388.00;;;;8311386;28;20205;-66
2023/09/13 12:28:28;;;;;;;4.57;2.72;;;;;27.20;96387.00;;;;8305640;28;20504;-66
2023/09/13 12:32:33;;;;;;;2.97;2.60;;;;;27.50;96379.00;;;;8306496;28;20205;-66
2023/09/13 12:36:37;;;;;;;5.07;2.50;;;;;27.60;96390.00;;;;8307919;28;20953;-66
2023/09/13 12:40:48;;;;;;;2.97;2.78;;;;;27.70;96387.00;;;;8307645;28;20190;-67
2023/09/13 12:44:54;;;;;;;3.45;2.28;;;;;27.90;96384.00;;;;8302107;28;20535;-65
2023/09/13 12:48:58;;;;;;;3.03;2.75;;;;;27.80;96390.00;;;;8300336;28;20316;-65
2023/09/13 12:53:02;;;;;;;3.00;2.50;;;;;28.00;96385.00;;;;8299536;28;21009;-65
2023/09/13 12:57:11;;;;;;;2.63;2.33;;;;;28.00;96390.00;;;;8303713;28;20197;-65
2023/09/13 13:01:20;;;;;;;2.72;2.53;;;;;27.90;96389.00;;;;8304104;28;20209;-65
2023/09/13 13:05:23;;;;;;;2.40;2.30;;;;;27.90;96382.00;;;;8301423;28;20229;-65
2023/09/13 13:09:32;;;;;;;2.15;2.05;;;;;27.90;96381.00;;;;8305415;28;20220;-64
2023/09/13 13:13:39;;;;;;;2.28;2.17;;;;;28.10;96385.00;;;;8308019;28;20231;-65
2023/09/13 13:17:46;;;;;;;3.15;2.40;;;;;28.20;96376.00;;;;8300205;28;20297;-64
2023/09/13 13:21:55;;;;;;;3.05;2.13;;;;;28.30;96383.00;;;;8305051;28;20194;-64
2023/09/13 13:26:13;;;;;;;2.25;2.15;;;;;28.40;96381.00;;;;8308245;28;20202;-65
2023/09/13 13:30:16;;;;;;;2.28;2.10;;;;;28.30;96376.00;;;;8312119;28;20291;-65
2023/09/13 13:34:20;;;;;;;2.70;2.50;;;;;28.40;96370.00;;;;8312412;28;20255;-64
2023/09/13 13:38:26;;;;;;;1.90;1.80;;;;;28.50;96366.00;;;;8310680;28;20558;-64
2023/09/13 13:42:35;;;;;;;3.03;2.83;;;;;28.50;96360.00;;;;8293714;28;20197;-64
2023/09/13 13:46:39;;;;;;;2.40;2.30;;;;;28.60;96373.00;;;;8312571;28;20236;-65
2023/09/13 13:50:47;;;;;;;1.83;1.73;;;;;28.70;96367.00;;;;8306747;28;20225;-64
2023/09/13 13:54:51;;;;;;;7.53;3.17;;;;;28.70;96374.00;;;;8304876;28;20228;-65
2023/09/13 13:58:57;;;;;;;9.77;4.45;;;;;28.70;96382.00;;;;8307041;28;21140;-65
2023/09/13 14:03:03;;;;;;;6.22;3.75;;;;;28.60;96381.00;;;;8303919;28;20271;-65
2023/09/13 14:07:11;;;;;;;16.15;5.18;;;;;28.50;96379.00;;;;8304503;28;20205;-65
2023/09/13 14:11:15;;;;;;;3.53;2.70;;;;;28.30;96383.00;;;;8305401;28;20324;-65
2023/09/13 14:15:20;;;;;;;2.38;2.22;;;;;28.00;96381.00;;;;8284980;28;20283;-65
2023/09/13 14:19:26;;;;;;;2.95;2.60;;;;;27.80;96372.00;;;;8303317;28;20748;-65
2023/09/13 14:23:30;;;;;;;7.00;3.15;;;;;27.50;96370.00;;;;8303872;28;20212;-65
2023/09/13 14:27:33;;;;;;;3.17;2.88;;;;;27.30;96379.00;;;;8308026;28;20643;-65
2023/09/13 14:32:00;;;;;;;3.20;2.90;;;;;27.00;96379.00;;;;8304568;28;20986;-65
2023/09/13 14:36:10;;;;;;;8.57;5.25;;;;;26.90;96372.00;;;;8303979;28;20197;-65
2023/09/13 14:40:15;;;;;;;3.55;2.90;;;;;26.90;96357.00;;;;8312035;28;20229;-65
2023/09/13 14:44:18;;;;;;;3.00;2.70;;;;;27.00;96371.00;;;;8318914;28;20205;-65
2023/09/13 14:48:21;;;;;;;3.00;2.65;;;;;27.10;96369.00;;;;8312120;28;20698;-65
2023/09/13 14:52:25;;;;;;;8.25;4.85;;;;;27.30;96362.00;;;;8295816;28;20230;-65
2023/09/13 14:56:30;;;;;;;6.43;4.25;;;;;27.40;96366.00;;;;8317083;28;20233;-65
2023/09/13 15:00:33;;;;;;;4.05;3.00;;;;;27.40;96374.00;;;;8309689;28;20201;-65
2023/09/13 15:04:36;;;;;;;10.13;4.47;;;;;27.30;96373.00;;;;8311351;28;20259;-65
2023/09/13 15:08:39;;;;;;;4.20;2.65;;;;;27.20;96378.00;;;;8312105;28;20194;-65
2023/09/13 15:12:52;;;;;;;3.30;2.97;;;;;27.00;96376.00;;;;8310822;28;20233;-65
2023/09/13 15:16:55;;;;;;;3.25;2.92;;;;;26.80;96382.00;;;;8295967;28;20223;-65
2023/09/13 15:20:59;;;;;;;3.03;2.83;;;;;26.60;96379.00;;;;8311744;28;20293;-65
2023/09/13 15:25:02;;;;;;;2.90;2.70;;;;;26.50;96376.00;;;;8309603;28;20205;-65
2023/09/13 15:29:13;;;;;;;3.65;2.70;;;;;26.50;96385.00;;;;8308188;28;21045;-65
2023/09/13 15:33:16;;;;;;;3.30;2.70;;;;;26.40;96376.00;;;;8309668;28;20201;-65
2023/09/13 15:37:19;;;;;;;4.75;2.80;;;;;26.20;96385.00;;;;8310547;28;20674;-64
2023/09/13 15:41:28;;;;;;;3.67;2.70;;;;;26.20;96382.00;;;;8309427;28;20189;-65
2023/09/13 15:45:33;;;;;;;3.00;2.80;;;;;26.10;96383.00;;;;8311177;28;20190;-64
2023/09/13 15:49:36;;;;;;;3.00;2.80;;;;;26.10;96392.00;;;;8313370;28;20627;-65
2023/09/13 15:53:45;;;;;;;4.55;2.72;;;;;25.90;96389.00;;;;8312535;28;20651;-65
2023/09/13 15:57:49;;;;;;;3.50;3.00;;;;;25.60;96392.00;;;;8310189;28;20213;-65
2023/09/13 16:01:54;;;;;;;3.70;3.40;;;;;25.30;96394.00;;;;8307617;28;20749;-64
2023/09/13 16:05:58;;;;;;;2.95;2.75;;;;;24.80;96412.00;;;;8315589;28;20224;-64
2023/09/13 16:10:02;;;;;;;3.50;3.20;;;;;24.00;96418.00;;;;8313116;28;20642;-64
2023/09/13 16:14:10;;;;;;;3.22;3.00;;;;;23.40;96433.00;;;;8295471;28;20197;-65
2023/09/13 16:18:14;;;;;;;5.05;3.92;;;;;22.20;96437.00;;;;8316267;28;20293;-63
2023/09/13 16:22:18;;;;;;;8.32;4.63;;;;;20.90;96432.00;;;;8314714;28;20232;-68
2023/09/13 16:26:22;;;;;;;7.65;4.53;;;;;20.10;96436.00;;;;8316302;28;20307;-67
2023/09/13 16:30:26;;;;;;;7.00;4.78;;;;;19.60;96435.00;;;;8315243;28;20265;-70
2023/09/13 16:34:30;;;;;;;7.90;4.82;;;;;19.40;96427.00;;;;8314646;28;20590;-69
2023/09/13 16:38:33;;;;;;;8.45;4.75;;;;;19.30;96433.00;;;;8315432;28;20211;-67
2023/09/13 16:42:42;;;;;;;11.90;5.32;;;;;19.30;96423.00;;;;8307301;28;20915;-68
2023/09/13 16:46:45;;;;;;;11.13;5.47;;;;;19.40;96428.00;;;;8314428;28;20232;-67
2023/09/13 16:50:50;;;;;;;11.27;4.75;;;;;19.50;96420.00;;;;8315372;28;20225;-66
2023/09/13 16:54:55;;;;;;;14.57;5.28;;;;;19.40;96424.00;;;;8313841;28;20201;-66
2023/09/13 16:58:58;;;;;;;13.68;5.00;;;;;19.40;96428.00;;;;8315060;28;20200;-65
2023/09/13 17:03:01;;;;;;;8.02;5.15;;;;;19.30;96424.00;;;;8313704;28;20313;-66
2023/09/13 17:07:07;;;;;;;12.18;5.60;;;;;19.30;96427.00;;;;8307665;28;20198;-66
2023/09/13 17:11:13;;;;;;;9.65;5.68;;;;;19.40;96429.00;;;;8310239;28;20232;-66
2023/09/13 17:15:17;;;;;;;10.77;5.95;;;;;19.50;96425.00;;;;8313124;28;20201;-66
2023/09/13 17:19:21;;;;;;;8.23;5.38;;;;;19.50;96426.00;;;;8309611;28;20643;-66
2023/09/13 17:23:27;;;;;;;8.80;6.20;;;;;19.50;96423.00;;;;8307373;28;20691;-66
2023/09/13 17:27:32;;;;;;;9.85;6.03;;;;;19.60;96424.00;;;;8308481;28;20198;-67
2023/09/13 17:31:35;;;;;;;13.85;6.22;;;;;19.50;96437.00;;;;8306986;28;20229;-67
2023/09/13 17:35:44;;;;;;;10.63;6.35;;;;;19.50;96443.00;;;;8314954;28;20201;-67
2023/09/13 17:39:50;;;;;;;10.63;6.00;;;;;19.50;96431.00;;;;8310266;28;20209;-66
2023/09/13 17:43:55;;;;;;;9.50;5.95;;;;;19.40;96439.00;;;;8312724;28;20196;-65
2023/09/13 17:47:59;;;;;;;12.07;6.82;;;;;19.40;96441.00;;;;8309809;28;20189;-65
2023/09/13 17:52:07;;;;;;;13.27;7.25;;;;;19.40;96448.00;;;;8312350;28;20263;-67
2023/09/13 17:56:17;;;;;;;12.60;6.70;;;;;19.30;96459.00;;;;8311635;28;20197;-67
2023/09/13 18:00:22;;;;;;;12.75;6.13;;;;;19.20;96457.00;;;;8312926;28;20198;-66
2023/09/13 18:04:32;;;;;;;12.85;6.13;;;;;19.00;96465.00;;;;8294696;28;20247;-65
2023/09/13 18:08:41;;;;;;;10.68;6.30;;;;;18.90;96471.00;;;;8313907;28;20197;-66
2023/09/13 18:12:47;;;;;;;12.80;6.65;;;;;18.80;96469.00;;;;8312366;28;20225;-65
2023/09/13 18:16:52;;;;;;;17.85;6.30;;;;;18.70;96471.00;;;;8319230;28;20194;-67
2023/09/13 18:20:56;;;;;;;11.35;6.70;;;;;18.60;96477.00;;;;8314978;28;20229;-68
2023/09/13 18:25:00;;;;;;;14.43;7.18;;;;;18.50;96476.00;;;;8317770;28;20201;-66
2023/09/13 18:29:10;;;;;;;12.93;6.60;;;;;18.40;96480.00;;;;8319964;28;20551;-66
2023/09/13 18:33:13;;;;;;;15.13;6.57;;;;;18.30;96483.00;;;;8316464;28;20229;-66
2023/09/13 18:37:19;;;;;;;14.55;6.65;;;;;18.30;96490.00;;;;8319282;28;20241;-65
2023/09/13 18:41:26;;;;;;;13.02;7.57;;;;;18.20;96493.00;;;;8319674;28;20204;-65
2023/09/13 18:45:36;;;;;;;15.57;7.68;;;;;18.20;96489.00;;;;8319003;28;20240;-66
2023/09/13 18:49:40;;;;;;;13.57;6.93;;;;;18.20;96489.00;;;;8316113;28;20209;-66
2023/09/13 18:53:43;;;;;;;17.08;7.55;;;;;18.10;96485.00;;;;8318306;28;20319;-67
2023/09/13 18:57:53;;;;;;;13.55;7.47;;;;;18.10;96491.00;;;;8318580;28;20222;-66
2023/09/13 19:01:58;;;;;;;21.55;8.25;;;;;18.10;96491.00;;;;8315437;28;20211;-64
2023/09/13 19:06:08;;;;;;;18.42;7.85;;;;;18.10;96506.00;;;;8319020;28;20221;-64
2023/09/13 19:10:14;;;;;;;17.77;8.48;;;;;18.00;96506.00;;;;8312169;28;20212;-64
2023/09/13 19:14:20;;;;;;;21.77;9.82;;;;;18.00;96513.00;;;;8299502;28;20295;-65
2023/09/13 19:18:24;;;;;;;23.67;11.30;;;;;18.10;96523.00;;;;8318205;28;20243;-65
2023/09/13 19:22:28;;;;;;;28.42;11.45;;;;;18.20;96524.00;;;;8318538;28;20696;-66
2023/09/13 19:26:31;;;;;;;26.75;12.73;;;;;18.30;96527.00;;;;8297393;28;20255;-65
2023/09/13 19:30:35;;;;;;;24.05;11.77;;;;;18.40;96535.00;;;;8316244;28;20205;-65
2023/09/13 19:34:40;;;;;;;29.15;11.95;;;;;18.50;96535.00;;;;8319212;28;20230;-65
2023/09/13 19:38:48;;;;;;;29.52;11.45;;;;;18.60;96541.00;;;;8301900;28;20638;-66
2023/09/13 19:42:55;;;;;;;21.67;11.43;;;;;18.60;96543.00;;;;8314750;28;20204;-65
2023/09/13 19:47:02;;;;;;;26.25;11.60;;;;;18.60;96548.00;;;;8318688;28;20202;-66
2023/09/13 19:51:13;;;;;;;22.67;10.50;;;;;18.60;96560.00;;;;8315981;28;20208;-65
2023/09/13 19:55:20;;;;;;;23.60;11.05;;;;;18.70;96560.00;;;;8317535;28;20208;-67
2023/09/13 19:59:23;;;;;;;22.00;10.52;;;;;18.70;96560.00;;;;8317785;28;20588;-65
2023/09/13 20:03:26;;;;;;;22.48;10.98;;;;;18.70;96561.00;;;;8317360;28;20225;-67
2023/09/13 20:07:37;;;;;;;23.35;10.85;;;;;18.70;96560.00;;;;8318206;28;20197;-67
2023/09/13 20:11:43;;;;;;;22.27;10.90;;;;;18.70;96556.00;;;;8317253;28;20217;-66
2023/09/13 20:15:48;;;;;;;24.17;12.13;;;;;18.70;96559.00;;;;8314590;28;20284;-66
2023/09/13 20:19:53;;;;;;;22.33;10.68;;;;;18.70;96571.00;;;;8317740;28;20231;-66
2023/09/13 20:23:57;;;;;;;24.45;12.27;;;;;18.70;96571.00;;;;8316606;28;20313;-66